TimeMST,TemperatureF,Dew PointF,Humidity,Sea Level PressureIn,VisibilityMPH,Wind Direction,Wind SpeedMPH,Gust SpeedMPH,PrecipitationIn,Events,Conditions,WindDirDegrees,DateUTC
12:14 AM,24.8,21.2,86,29.60,2.0,ENE,11.5,-,0.00,Snow,Light Snow,60,2012-12-08 07:14:00
12:31 AM,24.8,21.2,86,29.60,2.5,NE,8.1,-,0.00,Snow,Light Snow,50,2012-12-08 07:31:00
12:45 AM,24.8,21.2,86,29.60,3.0,NE,8.1,-,0.00,Snow,Light Snow,50,2012-12-08 07:45:00
12:53 AM,24.1,21.9,91,29.68,3.0,NE,8.1,-,0.00,Snow,Light Snow,50,2012-12-08 07:53:00
1:06 AM,24.8,21.2,86,29.60,2.5,NE,8.1,-,0.01,Snow,Light Snow,50,2012-12-08 08:06:00
1:14 AM,24.8,21.2,86,29.60,1.8,NE,6.9,-,0.01,Snow,Light Snow,50,2012-12-08 08:14:00
1:26 AM,24.8,21.2,86,29.60,1.2,ENE,9.2,-,0.01,Snow,Light Snow,60,2012-12-08 08:26:00
1:39 AM,24.8,21.2,86,29.60,1.0,NE,8.1,-,0.02,Snow,Light Snow,50,2012-12-08 08:39:00
1:53 AM,23.0,21.0,92,29.68,1.0,NE,9.2,-,0.03,Snow,Light Snow,40,2012-12-08 08:53:00
1:58 AM,23.0,19.4,86,29.61,0.8,NE,11.5,-,0.00,Snow,Light Snow,40,2012-12-08 08:58:00
2:18 AM,23.0,19.4,86,29.62,1.0,NE,11.5,-,0.01,Snow,Light Snow,50,2012-12-08 09:18:00
2:34 AM,23.0,19.4,86,29.63,0.8,NE,11.5,-,0.02,Snow,Light Snow,40,2012-12-08 09:34:00
2:53 AM,23.0,19.9,88,29.72,0.8,NE,15.0,-,0.04,Snow,Light Snow,50,2012-12-08 09:53:00
3:00 AM,23.0,19.4,86,29.65,1.0,NE,9.2,-,0.00,Snow,Light Snow,50,2012-12-08 10:00:00
3:19 AM,23.0,19.4,86,29.66,1.5,NE,6.9,-,0.03,Snow,Light Snow,40,2012-12-08 10:19:00
3:34 AM,23.0,19.4,86,29.67,1.0,NE,6.9,-,0.04,Snow,Light Snow,40,2012-12-08 10:34:00
3:41 AM,23.0,19.4,86,29.67,1.0,NNE,8.1,-,0.04,Snow,Light Snow,20,2012-12-08 10:41:00
3:46 AM,23.0,19.4,86,29.67,1.5,NNE,9.2,-,0.04,Snow,Light Snow,30,2012-12-08 10:46:00
3:53 AM,21.2,19.4,93,29.67,1.5,NNE,10.4,-,N/A,Snow,Light Snow,30,2012-12-08 10:53:00
4:00 AM,21.2,19.4,93,29.68,3.0,NNE,10.4,-,0.00,Snow,Light Snow,30,2012-12-08 11:00:00
4:07 AM,21.2,19.4,93,29.68,6.0,NNE,9.2,-,0.00,Snow,Light Snow,30,2012-12-08 11:07:00
4:32 AM,21.2,19.4,93,29.70,2.0,NNE,8.1,-,0.00,Snow,Light Snow,30,2012-12-08 11:32:00
4:42 AM,21.2,19.4,93,29.70,4.0,NNE,3.5,-,0.00,Snow,Light Snow,20,2012-12-08 11:42:00
4:53 AM,21.9,18.0,85,29.81,5.0,North,9.2,-,0.00,Snow,Light Snow,360,2012-12-08 11:53:00
5:09 AM,21.2,17.6,86,29.73,2.0,NNW,8.1,-,0.00,Snow,Light Snow,340,2012-12-08 12:09:00
5:30 AM,17.6,12.2,79,29.74,1.5,NNW,17.3,-,0.01,Snow,Light Snow,330,2012-12-08 12:30:00
5:40 AM,15.8,12.2,86,29.75,1.2,NNW,16.1,-,0.01,Snow,Light Snow,330,2012-12-08 12:40:00
5:42 AM,15.8,12.2,86,29.75,1.5,NNW,16.1,-,0.01,Snow,Light Snow,330,2012-12-08 12:42:00
5:53 AM,16.0,12.0,84,29.86,2.5,NNW,16.1,24.2,0.01,Snow,Light Snow,330,2012-12-08 12:53:00
6:00 AM,15.8,12.2,86,29.76,5.0,NNW,13.8,-,0.00,Snow,Light Snow,330,2012-12-08 13:00:00
6:46 AM,17.6,10.4,73,29.81,10.0,North,12.7,-,0.00,,Overcast,360,2012-12-08 13:46:00
6:53 AM,17.1,10.9,77,29.93,10.0,North,15.0,-,0.00,,Overcast,360,2012-12-08 13:53:00
7:53 AM,15.1,9.0,77,29.99,10.0,NW,9.2,-,N/A,,Overcast,320,2012-12-08 14:53:00
8:53 AM,10.9,6.1,81,30.05,5.0,NW,21.9,28.8,0.00,Snow,Light Snow,320,2012-12-08 15:53:00
9:53 AM,10.0,3.9,76,30.12,3.0,NW,19.6,-,0.00,Snow,Light Snow,320,2012-12-08 16:53:00
10:53 AM,9.0,3.0,77,30.17,4.0,NW,21.9,28.8,0.00,Snow,Light Snow,320,2012-12-08 17:53:00
11:53 AM,10.0,3.9,76,30.19,6.0,NNW,18.4,26.5,0.00,Snow,Light Snow,330,2012-12-08 18:53:00
12:53 PM,10.9,3.9,73,30.21,8.0,NNW,18.4,27.6,0.00,Snow,Light Snow,330,2012-12-08 19:53:00
1:53 PM,10.0,3.9,76,30.24,4.0,NW,17.3,-,0.00,Snow,Light Snow,320,2012-12-08 20:53:00
2:53 PM,10.0,3.0,73,30.26,10.0,NW,11.5,-,0.00,,Overcast,320,2012-12-08 21:53:00
3:53 PM,9.0,1.9,73,30.32,9.0,NW,10.4,-,N/A,,Overcast,310,2012-12-08 22:53:00
4:53 PM,9.0,1.0,70,30.35,10.0,NW,8.1,-,0.00,,Overcast,310,2012-12-08 23:53:00
5:43 PM,6.8,1.4,79,30.24,4.0,WSW,4.6,-,0.00,Snow,Light Snow,240,2012-12-09 00:43:00
5:53 PM,6.8,1.4,79,30.24,3.0,WSW,5.8,-,N/A,Snow,Light Snow,240,2012-12-09 00:53:00
6:12 PM,8.6,3.2,79,30.25,4.0,WSW,5.8,-,0.00,Snow,Light Snow,240,2012-12-09 01:12:00
6:26 PM,8.6,1.4,73,30.25,5.0,West,9.2,-,0.00,Snow,Light Snow,270,2012-12-09 01:26:00
6:38 PM,8.6,1.4,73,30.26,7.0,West,6.9,-,0.00,Snow,Light Snow,270,2012-12-09 01:38:00
6:53 PM,8.1,1.9,76,30.41,7.0,West,9.2,-,0.00,Snow,Light Snow,270,2012-12-09 01:53:00
7:53 PM,3.9,1.0,88,30.43,7.0,SW,6.9,-,0.00,,Overcast,220,2012-12-09 02:53:00
8:53 PM,5.0,1.0,84,30.44,10.0,SW,8.1,-,N/A,,Overcast,230,2012-12-09 03:53:00
9:53 PM,3.0,-0.9,84,30.47,10.0,SW,9.2,-,N/A,,Overcast,220,2012-12-09 04:53:00
10:14 PM,1.4,-2.2,85,30.30,8.0,SW,8.1,-,N/A,,Overcast,220,2012-12-09 05:14:00
10:53 PM,1.9,-2.9,80,30.48,10.0,SW,8.1,-,N/A,,Overcast,230,2012-12-09 05:53:00
11:53 PM,1.9,-2.0,83,30.48,9.0,SW,6.9,-,N/A,,Overcast,220,2012-12-09 06:53:00